sensor_id;sensor_type;location;lat;lon;timestamp;P1;durP1;ratioP1;P2;durP2;ratioP2
31692;SDS011;37436;53.230;6.614;2022-10-31T00:01:14;27.88;;;13.93;;
31692;SDS011;37436;53.230;6.614;2022-10-31T00:03:41;29.48;;;12.20;;
31692;SDS011;37436;53.230;6.614;2022-10-31T00:06:07;50.38;;;16.38;;
31692;SDS011;37436;53.230;6.614;2022-10-31T00:08:33;44.47;;;14.75;;
31692;SDS011;37436;53.230;6.614;2022-10-31T00:10:59;38.53;;;14.85;;
31692;SDS011;37436;53.230;6.614;2022-10-31T00:13:25;33.05;;;14.95;;
31692;SDS011;37436;53.230;6.614;2022-10-31T00:15:51;40.90;;;14.48;;
31692;SDS011;37436;53.230;6.614;2022-10-31T00:18:17;39.05;;;13.45;;
31692;SDS011;37436;53.230;6.614;2022-10-31T00:20:43;43.38;;;16.77;;
31692;SDS011;37436;53.230;6.614;2022-10-31T00:23:09;40.47;;;15.32;;
31692;SDS011;37436;53.230;6.614;2022-10-31T00:25:37;38.13;;;15.55;;
31692;SDS011;37436;53.230;6.614;2022-10-31T00:28:03;41.75;;;16.33;;
31692;SDS011;37436;53.230;6.614;2022-10-31T00:30:36;34.60;;;14.98;;
31692;SDS011;37436;53.230;6.614;2022-10-31T00:33:05;42.75;;;16.33;;
31692;SDS011;37436;53.230;6.614;2022-10-31T00:35:31;38.90;;;16.23;;
31692;SDS011;37436;53.230;6.614;2022-10-31T00:37:58;36.15;;;14.95;;
31692;SDS011;37436;53.230;6.614;2022-10-31T00:40:23;37.88;;;14.77;;
31692;SDS011;37436;53.230;6.614;2022-10-31T00:42:49;40.83;;;15.75;;
31692;SDS011;37436;53.230;6.614;2022-10-31T00:45:15;45.40;;;16.23;;
31692;SDS011;37436;53.230;6.614;2022-10-31T00:47:41;38.10;;;15.75;;
31692;SDS011;37436;53.230;6.614;2022-10-31T00:50:08;40.65;;;15.98;;
31692;SDS011;37436;53.230;6.614;2022-10-31T00:52:34;37.72;;;15.43;;
31692;SDS011;37436;53.230;6.614;2022-10-31T00:55:00;36.30;;;15.38;;
31692;SDS011;37436;53.230;6.614;2022-10-31T00:57:26;39.78;;;16.70;;
31692;SDS011;37436;53.230;6.614;2022-10-31T00:59:52;40.67;;;17.33;;
31692;SDS011;37436;53.230;6.614;2022-10-31T01:02:18;44.67;;;16.90;;
31692;SDS011;37436;53.230;6.614;2022-10-31T01:04:44;34.30;;;15.13;;
31692;SDS011;37436;53.230;6.614;2022-10-31T01:07:10;39.17;;;15.63;;
31692;SDS011;37436;53.230;6.614;2022-10-31T01:09:38;42.00;;;15.75;;
31692;SDS011;37436;53.230;6.614;2022-10-31T01:12:07;54.05;;;17.52;;
31692;SDS011;37436;53.230;6.614;2022-10-31T01:14:33;46.08;;;15.27;;
31692;SDS011;37436;53.230;6.614;2022-10-31T01:16:59;34.58;;;15.57;;
31692;SDS011;37436;53.230;6.614;2022-10-31T01:19:25;38.70;;;14.98;;
31692;SDS011;37436;53.230;6.614;2022-10-31T01:21:53;36.25;;;15.65;;
31692;SDS011;37436;53.230;6.614;2022-10-31T01:24:20;36.42;;;15.48;;
31692;SDS011;37436;53.230;6.614;2022-10-31T01:26:46;43.20;;;17.73;;
31692;SDS011;37436;53.230;6.614;2022-10-31T01:29:12;41.45;;;15.27;;
31692;SDS011;37436;53.230;6.614;2022-10-31T01:31:38;44.30;;;15.52;;
31692;SDS011;37436;53.230;6.614;2022-10-31T01:34:04;36.00;;;14.60;;
31692;SDS011;37436;53.230;6.614;2022-10-31T01:36:35;43.75;;;15.93;;
31692;SDS011;37436;53.230;6.614;2022-10-31T01:39:03;36.53;;;14.18;;
31692;SDS011;37436;53.230;6.614;2022-10-31T01:41:30;37.42;;;14.05;;
31692;SDS011;37436;53.230;6.614;2022-10-31T01:44:47;36.72;;;15.15;;
31692;SDS011;37436;53.230;6.614;2022-10-31T01:51:55;35.80;;;13.23;;
31692;SDS011;37436;53.230;6.614;2022-10-31T01:54:23;33.30;;;14.82;;
31692;SDS011;37436;53.230;6.614;2022-10-31T01:56:51;36.35;;;13.95;;
31692;SDS011;37436;53.230;6.614;2022-10-31T01:59:19;39.15;;;14.15;;
31692;SDS011;37436;53.230;6.614;2022-10-31T02:01:47;37.20;;;14.15;;
31692;SDS011;37436;53.230;6.614;2022-10-31T02:04:16;40.03;;;14.90;;
31692;SDS011;37436;53.230;6.614;2022-10-31T02:06:47;39.10;;;12.70;;
31692;SDS011;37436;53.230;6.614;2022-10-31T02:09:13;39.03;;;14.07;;
31692;SDS011;37436;53.230;6.614;2022-10-31T02:11:40;47.72;;;12.13;;
31692;SDS011;37436;53.230;6.614;2022-10-31T02:14:06;32.65;;;14.63;;
31692;SDS011;37436;53.230;6.614;2022-10-31T02:16:32;34.03;;;13.52;;
31692;SDS011;37436;53.230;6.614;2022-10-31T02:18:58;32.63;;;13.55;;
31692;SDS011;37436;53.230;6.614;2022-10-31T02:21:31;29.98;;;12.98;;
31692;SDS011;37436;53.230;6.614;2022-10-31T02:26:55;40.72;;;12.85;;
31692;SDS011;37436;53.230;6.614;2022-10-31T02:32:18;32.92;;;13.02;;
31692;SDS011;37436;53.230;6.614;2022-10-31T02:37:13;32.42;;;13.43;;
31692;SDS011;37436;53.230;6.614;2022-10-31T02:42:09;38.90;;;14.23;;
31692;SDS011;37436;53.230;6.614;2022-10-31T02:44:39;26.13;;;13.18;;
31692;SDS011;37436;53.230;6.614;2022-10-31T02:47:13;30.15;;;13.45;;
31692;SDS011;37436;53.230;6.614;2022-10-31T02:49:45;37.92;;;14.18;;
31692;SDS011;37436;53.230;6.614;2022-10-31T02:52:17;35.33;;;15.40;;
31692;SDS011;37436;53.230;6.614;2022-10-31T02:54:44;35.40;;;15.77;;
31692;SDS011;37436;53.230;6.614;2022-10-31T02:57:11;35.50;;;14.52;;
31692;SDS011;37436;53.230;6.614;2022-10-31T02:59:39;30.75;;;13.95;;
31692;SDS011;37436;53.230;6.614;2022-10-31T03:05:01;47.28;;;16.42;;
31692;SDS011;37436;53.230;6.614;2022-10-31T03:10:17;36.90;;;14.93;;
31692;SDS011;37436;53.230;6.614;2022-10-31T03:15:30;45.80;;;16.08;;
31692;SDS011;37436;53.230;6.614;2022-10-31T03:18:06;30.52;;;13.88;;
31692;SDS011;37436;53.230;6.614;2022-10-31T03:20:35;40.63;;;15.50;;
31692;SDS011;37436;53.230;6.614;2022-10-31T03:23:02;35.72;;;13.43;;
31692;SDS011;37436;53.230;6.614;2022-10-31T03:25:30;39.20;;;15.15;;
31692;SDS011;37436;53.230;6.614;2022-10-31T03:27:57;33.05;;;13.93;;
31692;SDS011;37436;53.230;6.614;2022-10-31T03:30:24;46.72;;;15.50;;
31692;SDS011;37436;53.230;6.614;2022-10-31T03:32:51;36.15;;;14.90;;
31692;SDS011;37436;53.230;6.614;2022-10-31T03:35:19;32.95;;;14.27;;
31692;SDS011;37436;53.230;6.614;2022-10-31T03:37:46;35.88;;;15.23;;
31692;SDS011;37436;53.230;6.614;2022-10-31T03:40:13;33.05;;;14.60;;
31692;SDS011;37436;53.230;6.614;2022-10-31T03:42:41;35.63;;;14.75;;
31692;SDS011;37436;53.230;6.614;2022-10-31T03:45:12;42.08;;;14.90;;
31692;SDS011;37436;53.230;6.614;2022-10-31T03:47:40;32.28;;;14.05;;
31692;SDS011;37436;53.230;6.614;2022-10-31T03:50:09;32.65;;;14.23;;
31692;SDS011;37436;53.230;6.614;2022-10-31T03:52:54;36.92;;;15.32;;
31692;SDS011;37436;53.230;6.614;2022-10-31T03:57:51;31.70;;;14.43;;
31692;SDS011;37436;53.230;6.614;2022-10-31T04:00:18;37.38;;;14.00;;
31692;SDS011;37436;53.230;6.614;2022-10-31T04:03:19;30.13;;;14.05;;
31692;SDS011;37436;53.230;6.614;2022-10-31T04:05:37;37.00;;;14.02;;
31692;SDS011;37436;53.230;6.614;2022-10-31T04:08:04;37.00;;;14.82;;
31692;SDS011;37436;53.230;6.614;2022-10-31T04:10:32;28.70;;;13.98;;
31692;SDS011;37436;53.230;6.614;2022-10-31T04:13:04;39.97;;;15.38;;
31692;SDS011;37436;53.230;6.614;2022-10-31T04:15:31;36.88;;;14.02;;
31692;SDS011;37436;53.230;6.614;2022-10-31T04:17:58;36.00;;;13.75;;
31692;SDS011;37436;53.230;6.614;2022-10-31T04:20:44;30.75;;;13.18;;
31692;SDS011;37436;53.230;6.614;2022-10-31T04:23:13;30.83;;;13.77;;
31692;SDS011;37436;53.230;6.614;2022-10-31T04:25:43;33.08;;;12.73;;
31692;SDS011;37436;53.230;6.614;2022-10-31T04:28:10;33.25;;;13.25;;
31692;SDS011;37436;53.230;6.614;2022-10-31T04:30:36;35.72;;;13.20;;
31692;SDS011;37436;53.230;6.614;2022-10-31T04:33:02;28.38;;;13.30;;
31692;SDS011;37436;53.230;6.614;2022-10-31T04:35:28;36.67;;;13.50;;
31692;SDS011;37436;53.230;6.614;2022-10-31T04:37:54;32.90;;;13.30;;
31692;SDS011;37436;53.230;6.614;2022-10-31T04:40:20;37.40;;;13.73;;
31692;SDS011;37436;53.230;6.614;2022-10-31T04:42:46;34.45;;;13.27;;
31692;SDS011;37436;53.230;6.614;2022-10-31T04:45:12;30.85;;;13.45;;
31692;SDS011;37436;53.230;6.614;2022-10-31T04:47:38;34.60;;;14.25;;
31692;SDS011;37436;53.230;6.614;2022-10-31T04:50:04;33.53;;;13.60;;
31692;SDS011;37436;53.230;6.614;2022-10-31T04:52:31;36.08;;;13.98;;
31692;SDS011;37436;53.230;6.614;2022-10-31T04:54:57;38.20;;;13.80;;
31692;SDS011;37436;53.230;6.614;2022-10-31T04:57:23;47.15;;;15.30;;
31692;SDS011;37436;53.230;6.614;2022-10-31T04:59:49;34.83;;;13.68;;
31692;SDS011;37436;53.230;6.614;2022-10-31T05:02:15;34.65;;;14.98;;
31692;SDS011;37436;53.230;6.614;2022-10-31T05:04:41;27.33;;;12.60;;
31692;SDS011;37436;53.230;6.614;2022-10-31T05:07:07;30.55;;;13.25;;
31692;SDS011;37436;53.230;6.614;2022-10-31T05:09:33;26.00;;;13.13;;
31692;SDS011;37436;53.230;6.614;2022-10-31T05:11:59;28.73;;;12.45;;
31692;SDS011;37436;53.230;6.614;2022-10-31T05:14:25;31.08;;;13.32;;
31692;SDS011;37436;53.230;6.614;2022-10-31T05:16:51;37.22;;;14.20;;
31692;SDS011;37436;53.230;6.614;2022-10-31T05:19:17;33.90;;;13.25;;
31692;SDS011;37436;53.230;6.614;2022-10-31T05:21:43;40.55;;;14.63;;
31692;SDS011;37436;53.230;6.614;2022-10-31T05:24:09;32.75;;;13.25;;
31692;SDS011;37436;53.230;6.614;2022-10-31T05:26:35;28.80;;;14.43;;
31692;SDS011;37436;53.230;6.614;2022-10-31T05:29:01;30.83;;;13.48;;
31692;SDS011;37436;53.230;6.614;2022-10-31T05:31:27;35.60;;;14.35;;
31692;SDS011;37436;53.230;6.614;2022-10-31T05:33:53;32.20;;;15.07;;
31692;SDS011;37436;53.230;6.614;2022-10-31T05:36:19;38.72;;;14.98;;
31692;SDS011;37436;53.230;6.614;2022-10-31T05:38:45;36.17;;;15.30;;
31692;SDS011;37436;53.230;6.614;2022-10-31T05:41:12;30.17;;;13.60;;
31692;SDS011;37436;53.230;6.614;2022-10-31T05:43:45;32.05;;;14.05;;
31692;SDS011;37436;53.230;6.614;2022-10-31T05:46:17;39.83;;;14.45;;
31692;SDS011;37436;53.230;6.614;2022-10-31T05:48:43;30.92;;;13.85;;
31692;SDS011;37436;53.230;6.614;2022-10-31T05:51:12;33.33;;;14.82;;
31692;SDS011;37436;53.230;6.614;2022-10-31T05:53:38;33.70;;;15.45;;
31692;SDS011;37436;53.230;6.614;2022-10-31T05:56:04;37.97;;;15.38;;
31692;SDS011;37436;53.230;6.614;2022-10-31T05:58:30;32.10;;;14.68;;
31692;SDS011;37436;53.230;6.614;2022-10-31T06:00:56;32.10;;;14.38;;
31692;SDS011;37436;53.230;6.614;2022-10-31T06:03:22;28.60;;;15.23;;
31692;SDS011;37436;53.230;6.614;2022-10-31T06:05:48;33.22;;;15.45;;
31692;SDS011;37436;53.230;6.614;2022-10-31T06:08:14;33.85;;;16.27;;
31692;SDS011;37436;53.230;6.614;2022-10-31T06:10:40;37.13;;;14.77;;
31692;SDS011;37436;53.230;6.614;2022-10-31T06:13:06;33.70;;;14.25;;
31692;SDS011;37436;53.230;6.614;2022-10-31T06:15:33;37.83;;;14.98;;
31692;SDS011;37436;53.230;6.614;2022-10-31T06:18:03;33.95;;;14.07;;
31692;SDS011;37436;53.230;6.614;2022-10-31T06:20:38;32.47;;;13.90;;
31692;SDS011;37436;53.230;6.614;2022-10-31T06:23:04;37.17;;;13.88;;
31692;SDS011;37436;53.230;6.614;2022-10-31T06:25:31;34.05;;;13.55;;
31692;SDS011;37436;53.230;6.614;2022-10-31T06:27:58;30.42;;;13.27;;
31692;SDS011;37436;53.230;6.614;2022-10-31T06:30:24;27.55;;;12.70;;
31692;SDS011;37436;53.230;6.614;2022-10-31T06:32:50;28.48;;;13.40;;
31692;SDS011;37436;53.230;6.614;2022-10-31T06:35:16;29.83;;;12.82;;
31692;SDS011;37436;53.230;6.614;2022-10-31T06:37:42;30.90;;;14.60;;
31692;SDS011;37436;53.230;6.614;2022-10-31T06:40:09;30.90;;;13.90;;
31692;SDS011;37436;53.230;6.614;2022-10-31T06:42:35;37.40;;;15.20;;
31692;SDS011;37436;53.230;6.614;2022-10-31T06:45:01;40.80;;;16.23;;
31692;SDS011;37436;53.230;6.614;2022-10-31T06:47:27;40.22;;;14.88;;
31692;SDS011;37436;53.230;6.614;2022-10-31T06:49:53;40.97;;;14.70;;
31692;SDS011;37436;53.230;6.614;2022-10-31T06:52:19;28.42;;;12.95;;
31692;SDS011;37436;53.230;6.614;2022-10-31T06:54:45;36.90;;;13.85;;
31692;SDS011;37436;53.230;6.614;2022-10-31T06:57:11;35.85;;;14.40;;
31692;SDS011;37436;53.230;6.614;2022-10-31T06:59:37;30.13;;;13.68;;
31692;SDS011;37436;53.230;6.614;2022-10-31T07:02:03;29.08;;;13.00;;
31692;SDS011;37436;53.230;6.614;2022-10-31T07:04:29;21.80;;;10.95;;
31692;SDS011;37436;53.230;6.614;2022-10-31T07:06:55;25.17;;;13.00;;
31692;SDS011;37436;53.230;6.614;2022-10-31T07:09:21;28.83;;;13.10;;
31692;SDS011;37436;53.230;6.614;2022-10-31T07:11:47;30.33;;;14.45;;
31692;SDS011;37436;53.230;6.614;2022-10-31T07:14:13;29.90;;;14.68;;
31692;SDS011;37436;53.230;6.614;2022-10-31T07:16:39;27.58;;;13.77;;
31692;SDS011;37436;53.230;6.614;2022-10-31T07:19:05;34.05;;;13.00;;
31692;SDS011;37436;53.230;6.614;2022-10-31T07:21:38;31.45;;;12.80;;
31692;SDS011;37436;53.230;6.614;2022-10-31T07:24:05;32.13;;;13.75;;
31692;SDS011;37436;53.230;6.614;2022-10-31T07:26:31;27.80;;;11.95;;
31692;SDS011;37436;53.230;6.614;2022-10-31T07:28:57;27.35;;;12.57;;
31692;SDS011;37436;53.230;6.614;2022-10-31T07:31:24;26.10;;;12.65;;
31692;SDS011;37436;53.230;6.614;2022-10-31T07:33:50;30.20;;;13.77;;
31692;SDS011;37436;53.230;6.614;2022-10-31T07:36:16;26.50;;;13.32;;
31692;SDS011;37436;53.230;6.614;2022-10-31T07:38:42;30.20;;;13.95;;
31692;SDS011;37436;53.230;6.614;2022-10-31T07:41:08;26.70;;;13.60;;
31692;SDS011;37436;53.230;6.614;2022-10-31T07:43:34;28.13;;;15.52;;
31692;SDS011;37436;53.230;6.614;2022-10-31T07:46:00;28.95;;;13.95;;
31692;SDS011;37436;53.230;6.614;2022-10-31T07:48:26;27.52;;;13.65;;
31692;SDS011;37436;53.230;6.614;2022-10-31T07:50:52;26.27;;;12.20;;
31692;SDS011;37436;53.230;6.614;2022-10-31T07:53:18;28.17;;;13.52;;
31692;SDS011;37436;53.230;6.614;2022-10-31T07:55:44;24.23;;;12.43;;
31692;SDS011;37436;53.230;6.614;2022-10-31T07:58:12;22.90;;;11.63;;
31692;SDS011;37436;53.230;6.614;2022-10-31T08:00:39;19.77;;;10.77;;
31692;SDS011;37436;53.230;6.614;2022-10-31T08:03:09;20.95;;;11.13;;
31692;SDS011;37436;53.230;6.614;2022-10-31T08:05:36;19.50;;;10.77;;
31692;SDS011;37436;53.230;6.614;2022-10-31T08:08:02;14.27;;;9.52;;
31692;SDS011;37436;53.230;6.614;2022-10-31T08:10:29;19.95;;;11.07;;
31692;SDS011;37436;53.230;6.614;2022-10-31T08:13:05;25.88;;;11.27;;
31692;SDS011;37436;53.230;6.614;2022-10-31T08:15:31;20.27;;;11.05;;
31692;SDS011;37436;53.230;6.614;2022-10-31T08:17:59;15.73;;;8.80;;
31692;SDS011;37436;53.230;6.614;2022-10-31T08:20:25;17.23;;;10.77;;
31692;SDS011;37436;53.230;6.614;2022-10-31T08:22:58;17.73;;;9.85;;
31692;SDS011;37436;53.230;6.614;2022-10-31T08:25:24;20.55;;;10.77;;
31692;SDS011;37436;53.230;6.614;2022-10-31T08:27:51;19.95;;;10.45;;
31692;SDS011;37436;53.230;6.614;2022-10-31T08:30:18;16.30;;;9.43;;
31692;SDS011;37436;53.230;6.614;2022-10-31T08:32:45;20.00;;;10.55;;
31692;SDS011;37436;53.230;6.614;2022-10-31T08:35:11;21.35;;;10.23;;
31692;SDS011;37436;53.230;6.614;2022-10-31T08:37:37;15.75;;;9.85;;
31692;SDS011;37436;53.230;6.614;2022-10-31T08:40:03;20.92;;;10.73;;
31692;SDS011;37436;53.230;6.614;2022-10-31T08:42:29;18.55;;;10.00;;
31692;SDS011;37436;53.230;6.614;2022-10-31T08:44:55;19.45;;;9.68;;
31692;SDS011;37436;53.230;6.614;2022-10-31T08:47:21;19.17;;;11.00;;
31692;SDS011;37436;53.230;6.614;2022-10-31T08:49:52;21.98;;;10.15;;
31692;SDS011;37436;53.230;6.614;2022-10-31T08:52:18;18.80;;;9.80;;
31692;SDS011;37436;53.230;6.614;2022-10-31T08:54:44;17.92;;;10.63;;
31692;SDS011;37436;53.230;6.614;2022-10-31T08:57:17;24.70;;;10.65;;
31692;SDS011;37436;53.230;6.614;2022-10-31T08:59:44;17.45;;;9.25;;
31692;SDS011;37436;53.230;6.614;2022-10-31T09:02:12;16.35;;;10.55;;
31692;SDS011;37436;53.230;6.614;2022-10-31T09:04:40;18.90;;;9.70;;
31692;SDS011;37436;53.230;6.614;2022-10-31T09:07:09;13.98;;;9.40;;
31692;SDS011;37436;53.230;6.614;2022-10-31T09:09:37;16.40;;;9.85;;
31692;SDS011;37436;53.230;6.614;2022-10-31T09:12:03;14.38;;;9.43;;
31692;SDS011;37436;53.230;6.614;2022-10-31T09:14:40;13.80;;;9.00;;
31692;SDS011;37436;53.230;6.614;2022-10-31T09:17:06;16.90;;;9.85;;
31692;SDS011;37436;53.230;6.614;2022-10-31T09:19:32;21.20;;;9.68;;
31692;SDS011;37436;53.230;6.614;2022-10-31T09:21:58;18.08;;;10.05;;
31692;SDS011;37436;53.230;6.614;2022-10-31T09:24:27;16.88;;;10.40;;
31692;SDS011;37436;53.230;6.614;2022-10-31T09:26:54;15.15;;;9.90;;
31692;SDS011;37436;53.230;6.614;2022-10-31T09:29:20;18.65;;;10.75;;
31692;SDS011;37436;53.230;6.614;2022-10-31T09:31:51;17.05;;;10.50;;
31692;SDS011;37436;53.230;6.614;2022-10-31T09:34:17;14.75;;;9.80;;
31692;SDS011;37436;53.230;6.614;2022-10-31T09:36:43;16.13;;;10.02;;
31692;SDS011;37436;53.230;6.614;2022-10-31T09:39:11;15.00;;;9.85;;
31692;SDS011;37436;53.230;6.614;2022-10-31T09:41:43;18.15;;;10.63;;
31692;SDS011;37436;53.230;6.614;2022-10-31T09:44:18;20.67;;;10.25;;
31692;SDS011;37436;53.230;6.614;2022-10-31T09:46:58;18.33;;;9.95;;
31692;SDS011;37436;53.230;6.614;2022-10-31T09:57:13;11.95;;;9.10;;
31692;SDS011;37436;53.230;6.614;2022-10-31T09:59:40;12.25;;;9.18;;
31692;SDS011;37436;53.230;6.614;2022-10-31T10:02:24;12.60;;;9.20;;
31692;SDS011;37436;53.230;6.614;2022-10-31T10:04:59;12.73;;;8.82;;
31692;SDS011;37436;53.230;6.614;2022-10-31T10:10:20;16.60;;;10.07;;
31692;SDS011;37436;53.230;6.614;2022-10-31T10:18:05;15.25;;;9.25;;
31692;SDS011;37436;53.230;6.614;2022-10-31T10:23:01;15.35;;;8.98;;
31692;SDS011;37436;53.230;6.614;2022-10-31T10:25:39;15.85;;;8.82;;
31692;SDS011;37436;53.230;6.614;2022-10-31T10:31:08;14.93;;;8.02;;
31692;SDS011;37436;53.230;6.614;2022-10-31T10:33:40;12.15;;;8.23;;
31692;SDS011;37436;53.230;6.614;2022-10-31T10:36:33;13.88;;;8.45;;
31692;SDS011;37436;53.230;6.614;2022-10-31T10:39:38;16.33;;;8.50;;
31692;SDS011;37436;53.230;6.614;2022-10-31T10:41:57;10.35;;;7.30;;
31692;SDS011;37436;53.230;6.614;2022-10-31T10:44:46;12.05;;;7.22;;
31692;SDS011;37436;53.230;6.614;2022-10-31T10:47:34;20.02;;;7.55;;
31692;SDS011;37436;53.230;6.614;2022-10-31T10:50:06;13.90;;;7.95;;
31692;SDS011;37436;53.230;6.614;2022-10-31T10:55:09;14.30;;;8.30;;
31692;SDS011;37436;53.230;6.614;2022-10-31T11:05:55;14.63;;;8.50;;
31692;SDS011;37436;53.230;6.614;2022-10-31T11:08:35;21.35;;;9.18;;
31692;SDS011;37436;53.230;6.614;2022-10-31T11:13:46;21.13;;;8.05;;
31692;SDS011;37436;53.230;6.614;2022-10-31T11:19:08;15.90;;;6.60;;
31692;SDS011;37436;53.230;6.614;2022-10-31T11:21:42;12.68;;;7.28;;
31692;SDS011;37436;53.230;6.614;2022-10-31T11:26:37;15.50;;;6.93;;
31692;SDS011;37436;53.230;6.614;2022-10-31T11:29:04;16.23;;;8.38;;
31692;SDS011;37436;53.230;6.614;2022-10-31T11:31:31;17.80;;;8.20;;
31692;SDS011;37436;53.230;6.614;2022-10-31T11:34:03;17.25;;;8.18;;
31692;SDS011;37436;53.230;6.614;2022-10-31T11:36:33;13.85;;;7.75;;
31692;SDS011;37436;53.230;6.614;2022-10-31T11:39:00;10.98;;;6.82;;
31692;SDS011;37436;53.230;6.614;2022-10-31T11:41:32;15.95;;;7.18;;
31692;SDS011;37436;53.230;6.614;2022-10-31T11:43:59;12.07;;;6.72;;
31692;SDS011;37436;53.230;6.614;2022-10-31T11:49:00;13.00;;;7.10;;
31692;SDS011;37436;53.230;6.614;2022-10-31T11:51:33;14.15;;;5.65;;
31692;SDS011;37436;53.230;6.614;2022-10-31T11:54:01;12.98;;;6.40;;
31692;SDS011;37436;53.230;6.614;2022-10-31T11:56:39;20.83;;;6.50;;
31692;SDS011;37436;53.230;6.614;2022-10-31T11:59:14;15.07;;;6.55;;
31692;SDS011;37436;53.230;6.614;2022-10-31T12:01:49;12.93;;;6.55;;
31692;SDS011;37436;53.230;6.614;2022-10-31T12:04:18;17.30;;;7.30;;
31692;SDS011;37436;53.230;6.614;2022-10-31T12:06:52;12.98;;;7.47;;
31692;SDS011;37436;53.230;6.614;2022-10-31T12:09:20;18.90;;;6.25;;
31692;SDS011;37436;53.230;6.614;2022-10-31T12:16:42;18.83;;;5.85;;
31692;SDS011;37436;53.230;6.614;2022-10-31T12:22:00;13.60;;;5.50;;
31692;SDS011;37436;53.230;6.614;2022-10-31T12:24:35;11.65;;;6.05;;
31692;SDS011;37436;53.230;6.614;2022-10-31T12:34:49;13.18;;;6.70;;
31692;SDS011;37436;53.230;6.614;2022-10-31T12:37:26;12.35;;;6.20;;
31692;SDS011;37436;53.230;6.614;2022-10-31T12:45:30;11.05;;;5.45;;
31692;SDS011;37436;53.230;6.614;2022-10-31T12:48:03;11.45;;;5.35;;
31692;SDS011;37436;53.230;6.614;2022-10-31T12:50:39;12.65;;;6.05;;
31692;SDS011;37436;53.230;6.614;2022-10-31T12:56:06;14.30;;;5.97;;
31692;SDS011;37436;53.230;6.614;2022-10-31T13:01:09;17.23;;;6.00;;
31692;SDS011;37436;53.230;6.614;2022-10-31T13:03:47;16.65;;;6.07;;
31692;SDS011;37436;53.230;6.614;2022-10-31T13:06:16;14.63;;;5.82;;
31692;SDS011;37436;53.230;6.614;2022-10-31T13:08:49;12.73;;;5.40;;
31692;SDS011;37436;53.230;6.614;2022-10-31T13:11:18;19.33;;;6.18;;
31692;SDS011;37436;53.230;6.614;2022-10-31T13:13:54;18.90;;;6.03;;
31692;SDS011;37436;53.230;6.614;2022-10-31T13:16:22;11.60;;;5.55;;
31692;SDS011;37436;53.230;6.614;2022-10-31T13:18:50;18.10;;;5.80;;
31692;SDS011;37436;53.230;6.614;2022-10-31T13:21:21;11.38;;;4.53;;
31692;SDS011;37436;53.230;6.614;2022-10-31T13:23:51;8.20;;;3.13;;
31692;SDS011;37436;53.230;6.614;2022-10-31T13:26:28;6.65;;;2.95;;
31692;SDS011;37436;53.230;6.614;2022-10-31T13:29:04;8.13;;;2.83;;
31692;SDS011;37436;53.230;6.614;2022-10-31T13:31:32;11.27;;;3.15;;
31692;SDS011;37436;53.230;6.614;2022-10-31T13:34:02;10.45;;;3.78;;
31692;SDS011;37436;53.230;6.614;2022-10-31T13:38:59;10.50;;;3.53;;
31692;SDS011;37436;53.230;6.614;2022-10-31T13:41:48;10.55;;;3.80;;
31692;SDS011;37436;53.230;6.614;2022-10-31T13:44:17;11.30;;;3.83;;
31692;SDS011;37436;53.230;6.614;2022-10-31T13:46:44;11.07;;;4.10;;
31692;SDS011;37436;53.230;6.614;2022-10-31T13:51:52;17.83;;;4.57;;
31692;SDS011;37436;53.230;6.614;2022-10-31T13:54:31;13.45;;;5.30;;
31692;SDS011;37436;53.230;6.614;2022-10-31T13:56:58;18.98;;;5.18;;
31692;SDS011;37436;53.230;6.614;2022-10-31T13:59:27;10.45;;;5.38;;
31692;SDS011;37436;53.230;6.614;2022-10-31T14:02:00;15.75;;;5.35;;
31692;SDS011;37436;53.230;6.614;2022-10-31T14:04:28;15.30;;;5.97;;
31692;SDS011;37436;53.230;6.614;2022-10-31T14:11:50;16.95;;;5.28;;
31692;SDS011;37436;53.230;6.614;2022-10-31T14:14:16;14.88;;;5.22;;
31692;SDS011;37436;53.230;6.614;2022-10-31T14:16:44;16.27;;;5.57;;
31692;SDS011;37436;53.230;6.614;2022-10-31T14:19:17;14.73;;;5.35;;
31692;SDS011;37436;53.230;6.614;2022-10-31T14:21:44;12.55;;;4.70;;
31692;SDS011;37436;53.230;6.614;2022-10-31T14:29:22;13.98;;;5.55;;
31692;SDS011;37436;53.230;6.614;2022-10-31T14:31:57;17.35;;;5.43;;
31692;SDS011;37436;53.230;6.614;2022-10-31T14:35:09;15.43;;;5.30;;
31692;SDS011;37436;53.230;6.614;2022-10-31T14:37:34;17.52;;;5.32;;
31692;SDS011;37436;53.230;6.614;2022-10-31T14:42:45;12.75;;;4.40;;
31692;SDS011;37436;53.230;6.614;2022-10-31T14:50:48;13.95;;;4.15;;
31692;SDS011;37436;53.230;6.614;2022-10-31T14:53:22;11.73;;;4.85;;
31692;SDS011;37436;53.230;6.614;2022-10-31T14:55:49;13.82;;;4.20;;
31692;SDS011;37436;53.230;6.614;2022-10-31T14:58:18;14.95;;;5.13;;
31692;SDS011;37436;53.230;6.614;2022-10-31T15:00:45;14.98;;;5.75;;
31692;SDS011;37436;53.230;6.614;2022-10-31T15:03:12;14.02;;;4.97;;
31692;SDS011;37436;53.230;6.614;2022-10-31T15:05:41;18.40;;;5.97;;
31692;SDS011;37436;53.230;6.614;2022-10-31T15:08:25;16.35;;;5.35;;
31692;SDS011;37436;53.230;6.614;2022-10-31T15:10:52;11.88;;;5.68;;
31692;SDS011;37436;53.230;6.614;2022-10-31T15:13:19;17.50;;;5.93;;
31692;SDS011;37436;53.230;6.614;2022-10-31T15:15:49;12.60;;;5.90;;
31692;SDS011;37436;53.230;6.614;2022-10-31T15:18:17;16.35;;;6.13;;
31692;SDS011;37436;53.230;6.614;2022-10-31T15:20:44;15.02;;;6.32;;
31692;SDS011;37436;53.230;6.614;2022-10-31T15:23:20;22.95;;;6.75;;
31692;SDS011;37436;53.230;6.614;2022-10-31T15:25:47;13.27;;;6.88;;
31692;SDS011;37436;53.230;6.614;2022-10-31T15:28:14;18.25;;;6.57;;
31692;SDS011;37436;53.230;6.614;2022-10-31T15:30:50;24.50;;;8.23;;
31692;SDS011;37436;53.230;6.614;2022-10-31T15:35:56;15.57;;;7.17;;
31692;SDS011;37436;53.230;6.614;2022-10-31T15:38:23;21.45;;;7.40;;
31692;SDS011;37436;53.230;6.614;2022-10-31T15:40:53;17.60;;;7.45;;
31692;SDS011;37436;53.230;6.614;2022-10-31T15:43:20;20.13;;;6.97;;
31692;SDS011;37436;53.230;6.614;2022-10-31T15:45:46;19.48;;;8.15;;
31692;SDS011;37436;53.230;6.614;2022-10-31T15:48:16;25.25;;;9.85;;
31692;SDS011;37436;53.230;6.614;2022-10-31T15:50:50;20.15;;;7.72;;
31692;SDS011;37436;53.230;6.614;2022-10-31T15:53:18;16.77;;;8.38;;
31692;SDS011;37436;53.230;6.614;2022-10-31T15:55:50;19.30;;;7.47;;
31692;SDS011;37436;53.230;6.614;2022-10-31T15:58:18;18.50;;;8.80;;
31692;SDS011;37436;53.230;6.614;2022-10-31T16:00:44;14.55;;;7.07;;
31692;SDS011;37436;53.230;6.614;2022-10-31T16:08:21;16.35;;;8.32;;
31692;SDS011;37436;53.230;6.614;2022-10-31T16:10:49;18.27;;;9.13;;
31692;SDS011;37436;53.230;6.614;2022-10-31T16:13:15;25.10;;;8.27;;
31692;SDS011;37436;53.230;6.614;2022-10-31T16:15:51;16.48;;;7.68;;
31692;SDS011;37436;53.230;6.614;2022-10-31T16:18:18;22.20;;;8.85;;
31692;SDS011;37436;53.230;6.614;2022-10-31T16:20:48;15.65;;;7.30;;
31692;SDS011;37436;53.230;6.614;2022-10-31T16:23:17;23.33;;;8.85;;
31692;SDS011;37436;53.230;6.614;2022-10-31T16:25:43;15.43;;;7.43;;
31692;SDS011;37436;53.230;6.614;2022-10-31T16:28:17;15.70;;;7.07;;
31692;SDS011;37436;53.230;6.614;2022-10-31T16:30:45;14.88;;;6.90;;
31692;SDS011;37436;53.230;6.614;2022-10-31T16:35:49;17.70;;;9.27;;
31692;SDS011;37436;53.230;6.614;2022-10-31T16:38:15;13.10;;;6.68;;
31692;SDS011;37436;53.230;6.614;2022-10-31T16:40:43;13.93;;;5.63;;
31692;SDS011;37436;53.230;6.614;2022-10-31T16:43:13;13.77;;;6.05;;
31692;SDS011;37436;53.230;6.614;2022-10-31T16:45:44;16.80;;;6.47;;